sensor_id;sensor_type;location;lat;lon;timestamp;temperature;humidity
26952;DHT22;14507;52.418;13.398;2023-03-20T00:01:38;11.80;99.90
26952;DHT22;14507;52.418;13.398;2023-03-20T00:04:04;11.80;99.90
26952;DHT22;14507;52.418;13.398;2023-03-20T00:06:29;11.70;99.90
26952;DHT22;14507;52.418;13.398;2023-03-20T00:08:55;11.70;99.90
26952;DHT22;14507;52.418;13.398;2023-03-20T00:11:28;11.80;99.90
26952;DHT22;14507;52.418;13.398;2023-03-20T00:13:56;11.70;99.90
26952;DHT22;14507;52.418;13.398;2023-03-20T00:16:24;11.70;99.90
26952;DHT22;14507;52.418;13.398;2023-03-20T00:18:51;11.70;99.90
26952;DHT22;14507;52.418;13.398;2023-03-20T00:21:17;11.60;99.90
26952;DHT22;14507;52.418;13.398;2023-03-20T00:23:44;11.50;99.90
26952;DHT22;14507;52.418;13.398;2023-03-20T00:26:15;11.50;99.90
26952;DHT22;14507;52.418;13.398;2023-03-20T00:28:44;11.50;99.90
26952;DHT22;14507;52.418;13.398;2023-03-20T00:31:24;11.40;99.90
26952;DHT22;14507;52.418;13.398;2023-03-20T00:33:52;11.40;99.90
26952;DHT22;14507;52.418;13.398;2023-03-20T00:36:18;11.40;99.90
26952;DHT22;14507;52.418;13.398;2023-03-20T00:38:44;11.40;99.90
26952;DHT22;14507;52.418;13.398;2023-03-20T00:43:51;11.20;99.90
26952;DHT22;14507;52.418;13.398;2023-03-20T00:46:17;11.20;99.90
26952;DHT22;14507;52.418;13.398;2023-03-20T00:48:43;11.20;99.90
26952;DHT22;14507;52.418;13.398;2023-03-20T00:51:09;11.20;99.90
26952;DHT22;14507;52.418;13.398;2023-03-20T00:53:35;11.10;99.90
26952;DHT22;14507;52.418;13.398;2023-03-20T00:56:01;11.10;99.90
26952;DHT22;14507;52.418;13.398;2023-03-20T00:58:27;11.00;99.90
26952;DHT22;14507;52.418;13.398;2023-03-20T01:00:53;11.00;99.90
26952;DHT22;14507;52.418;13.398;2023-03-20T01:03:24;11.00;99.90
26952;DHT22;14507;52.418;13.398;2023-03-20T01:05:51;11.00;99.90
26952;DHT22;14507;52.418;13.398;2023-03-20T01:08:24;10.90;99.90
26952;DHT22;14507;52.418;13.398;2023-03-20T01:10:53;10.90;99.90
26952;DHT22;14507;52.418;13.398;2023-03-20T01:13:25;10.90;99.90
26952;DHT22;14507;52.418;13.398;2023-03-20T01:15:52;10.90;99.90
26952;DHT22;14507;52.418;13.398;2023-03-20T01:18:21;10.90;99.90
26952;DHT22;14507;52.418;13.398;2023-03-20T01:20:47;10.80;99.90
26952;DHT22;14507;52.418;13.398;2023-03-20T01:23:13;10.80;99.90
26952;DHT22;14507;52.418;13.398;2023-03-20T01:25:40;10.80;99.90
26952;DHT22;14507;52.418;13.398;2023-03-20T01:28:19;10.80;99.90
26952;DHT22;14507;52.418;13.398;2023-03-20T01:30:46;10.80;99.90
26952;DHT22;14507;52.418;13.398;2023-03-20T01:33:17;10.80;99.90
26952;DHT22;14507;52.418;13.398;2023-03-20T01:35:44;10.80;99.90
26952;DHT22;14507;52.418;13.398;2023-03-20T01:38:22;10.80;99.90
26952;DHT22;14507;52.418;13.398;2023-03-20T01:43:19;10.70;99.90
26952;DHT22;14507;52.418;13.398;2023-03-20T01:45:59;10.80;99.90
26952;DHT22;14507;52.418;13.398;2023-03-20T01:48:53;10.70;99.90
26952;DHT22;14507;52.418;13.398;2023-03-20T01:51:26;10.70;99.90
26952;DHT22;14507;52.418;13.398;2023-03-20T01:54:10;10.70;99.90
26952;DHT22;14507;52.418;13.398;2023-03-20T01:56:43;10.70;99.90
26952;DHT22;14507;52.418;13.398;2023-03-20T01:59:17;10.70;99.90
26952;DHT22;14507;52.418;13.398;2023-03-20T02:01:44;10.80;99.90
26952;DHT22;14507;52.418;13.398;2023-03-20T02:04:11;10.70;99.90
26952;DHT22;14507;52.418;13.398;2023-03-20T02:06:38;10.70;99.90
26952;DHT22;14507;52.418;13.398;2023-03-20T02:09:06;10.70;99.90
26952;DHT22;14507;52.418;13.398;2023-03-20T02:11:32;10.70;99.90
26952;DHT22;14507;52.418;13.398;2023-03-20T02:14:00;10.60;99.90
26952;DHT22;14507;52.418;13.398;2023-03-20T02:16:27;10.60;99.90
26952;DHT22;14507;52.418;13.398;2023-03-20T02:18:53;10.60;99.90
26952;DHT22;14507;52.418;13.398;2023-03-20T02:30:39;10.60;99.90
26952;DHT22;14507;52.418;13.398;2023-03-20T02:47:19;10.50;99.90
26952;DHT22;14507;52.418;13.398;2023-03-20T02:50:09;10.50;99.90
26952;DHT22;14507;52.418;13.398;2023-03-20T02:57:56;10.50;99.90
26952;DHT22;14507;52.418;13.398;2023-03-20T03:00:29;10.50;99.90
26952;DHT22;14507;52.418;13.398;2023-03-20T03:03:14;10.50;99.90
26952;DHT22;14507;52.418;13.398;2023-03-20T03:05:47;10.50;99.90
26952;DHT22;14507;52.418;13.398;2023-03-20T03:08:17;10.40;99.90
26952;DHT22;14507;52.418;13.398;2023-03-20T03:10:48;10.40;99.90
26952;DHT22;14507;52.418;13.398;2023-03-20T03:13:19;10.40;99.90
26952;DHT22;14507;52.418;13.398;2023-03-20T03:15:50;10.40;99.90
26952;DHT22;14507;52.418;13.398;2023-03-20T03:18:19;10.40;99.90
26952;DHT22;14507;52.418;13.398;2023-03-20T03:20:48;10.40;99.90
26952;DHT22;14507;52.418;13.398;2023-03-20T03:24:02;10.40;99.90
26952;DHT22;14507;52.418;13.398;2023-03-20T03:26:13;10.40;99.90
26952;DHT22;14507;52.418;13.398;2023-03-20T03:28:47;10.40;99.90
26952;DHT22;14507;52.418;13.398;2023-03-20T03:31:15;10.40;99.90
26952;DHT22;14507;52.418;13.398;2023-03-20T03:33:45;10.40;99.90
26952;DHT22;14507;52.418;13.398;2023-03-20T03:36:26;10.40;99.90
26952;DHT22;14507;52.418;13.398;2023-03-20T03:41:45;10.40;99.90
26952;DHT22;14507;52.418;13.398;2023-03-20T03:44:19;10.40;99.90
26952;DHT22;14507;52.418;13.398;2023-03-20T03:46:56;10.40;99.90
26952;DHT22;14507;52.418;13.398;2023-03-20T03:49:27;10.40;99.90
26952;DHT22;14507;52.418;13.398;2023-03-20T03:51:59;10.50;99.90
26952;DHT22;14507;52.418;13.398;2023-03-20T03:54:47;10.50;99.90
26952;DHT22;14507;52.418;13.398;2023-03-20T03:57:14;10.40;99.90
26952;DHT22;14507;52.418;13.398;2023-03-20T03:59:46;10.40;99.90
26952;DHT22;14507;52.418;13.398;2023-03-20T04:02:16;10.40;99.90
26952;DHT22;14507;52.418;13.398;2023-03-20T04:04:46;10.40;99.90
26952;DHT22;14507;52.418;13.398;2023-03-20T04:07:15;10.40;99.90
26952;DHT22;14507;52.418;13.398;2023-03-20T04:09:41;10.40;99.90
26952;DHT22;14507;52.418;13.398;2023-03-20T04:12:39;10.40;99.90
26952;DHT22;14507;52.418;13.398;2023-03-20T04:15:04;10.40;99.90
26952;DHT22;14507;52.418;13.398;2023-03-20T04:17:30;10.30;99.90
26952;DHT22;14507;52.418;13.398;2023-03-20T04:19:56;10.30;99.90
26952;DHT22;14507;52.418;13.398;2023-03-20T04:22:22;10.30;99.90
26952;DHT22;14507;52.418;13.398;2023-03-20T04:24:47;10.30;99.90
26952;DHT22;14507;52.418;13.398;2023-03-20T04:27:13;10.30;99.90
26952;DHT22;14507;52.418;13.398;2023-03-20T04:29:39;10.30;99.90
26952;DHT22;14507;52.418;13.398;2023-03-20T04:32:05;10.30;99.90
26952;DHT22;14507;52.418;13.398;2023-03-20T04:34:31;10.30;99.90
26952;DHT22;14507;52.418;13.398;2023-03-20T04:36:57;10.30;99.90
26952;DHT22;14507;52.418;13.398;2023-03-20T04:39:25;10.30;99.90
26952;DHT22;14507;52.418;13.398;2023-03-20T04:41:51;10.30;99.90
26952;DHT22;14507;52.418;13.398;2023-03-20T04:44:16;10.30;99.90
26952;DHT22;14507;52.418;13.398;2023-03-20T04:46:42;10.30;99.90
26952;DHT22;14507;52.418;13.398;2023-03-20T04:49:07;10.30;99.90
26952;DHT22;14507;52.418;13.398;2023-03-20T04:51:33;10.30;99.90
26952;DHT22;14507;52.418;13.398;2023-03-20T04:53:59;10.30;99.90
26952;DHT22;14507;52.418;13.398;2023-03-20T04:56:24;10.30;99.90
26952;DHT22;14507;52.418;13.398;2023-03-20T04:58:50;10.30;99.90
26952;DHT22;14507;52.418;13.398;2023-03-20T05:01:16;10.30;99.90
26952;DHT22;14507;52.418;13.398;2023-03-20T05:03:42;10.30;99.90
26952;DHT22;14507;52.418;13.398;2023-03-20T05:06:08;10.30;99.90
26952;DHT22;14507;52.418;13.398;2023-03-20T05:08:34;10.30;99.90
26952;DHT22;14507;52.418;13.398;2023-03-20T05:10:59;10.30;99.90
26952;DHT22;14507;52.418;13.398;2023-03-20T05:13:25;10.30;99.90
26952;DHT22;14507;52.418;13.398;2023-03-20T05:15:51;10.30;99.90
26952;DHT22;14507;52.418;13.398;2023-03-20T05:18:16;10.30;99.90
26952;DHT22;14507;52.418;13.398;2023-03-20T05:20:42;10.30;99.90
26952;DHT22;14507;52.418;13.398;2023-03-20T05:23:08;10.30;99.90
26952;DHT22;14507;52.418;13.398;2023-03-20T05:25:33;10.30;99.90
26952;DHT22;14507;52.418;13.398;2023-03-20T05:27:59;10.30;99.90
26952;DHT22;14507;52.418;13.398;2023-03-20T05:30:24;10.30;99.90
26952;DHT22;14507;52.418;13.398;2023-03-20T05:32:50;10.30;99.90
26952;DHT22;14507;52.418;13.398;2023-03-20T05:35:17;10.30;99.90
26952;DHT22;14507;52.418;13.398;2023-03-20T05:37:43;10.30;99.90
26952;DHT22;14507;52.418;13.398;2023-03-20T05:40:12;10.30;99.90
26952;DHT22;14507;52.418;13.398;2023-03-20T05:42:38;10.30;99.90
26952;DHT22;14507;52.418;13.398;2023-03-20T05:45:04;10.30;99.90
26952;DHT22;14507;52.418;13.398;2023-03-20T05:47:30;10.30;99.90
26952;DHT22;14507;52.418;13.398;2023-03-20T05:49:56;10.30;99.90
26952;DHT22;14507;52.418;13.398;2023-03-20T05:52:22;10.30;99.90
26952;DHT22;14507;52.418;13.398;2023-03-20T05:54:48;10.40;99.90
26952;DHT22;14507;52.418;13.398;2023-03-20T05:57:14;10.30;99.90
26952;DHT22;14507;52.418;13.398;2023-03-20T05:59:40;10.30;99.90
26952;DHT22;14507;52.418;13.398;2023-03-20T06:02:09;10.30;99.90
26952;DHT22;14507;52.418;13.398;2023-03-20T06:04:35;10.30;99.90
26952;DHT22;14507;52.418;13.398;2023-03-20T06:07:03;10.40;99.90
26952;DHT22;14507;52.418;13.398;2023-03-20T06:09:28;10.40;99.90
26952;DHT22;14507;52.418;13.398;2023-03-20T06:11:54;10.40;99.90
26952;DHT22;14507;52.418;13.398;2023-03-20T06:14:20;10.40;99.90
26952;DHT22;14507;52.418;13.398;2023-03-20T06:16:46;10.40;99.90
26952;DHT22;14507;52.418;13.398;2023-03-20T06:19:12;10.40;99.90
26952;DHT22;14507;52.418;13.398;2023-03-20T06:21:37;10.50;99.90
26952;DHT22;14507;52.418;13.398;2023-03-20T06:24:03;10.50;99.90
26952;DHT22;14507;52.418;13.398;2023-03-20T06:26:29;10.50;99.90
26952;DHT22;14507;52.418;13.398;2023-03-20T06:28:54;10.50;99.90
26952;DHT22;14507;52.418;13.398;2023-03-20T06:31:20;10.60;99.90
26952;DHT22;14507;52.418;13.398;2023-03-20T06:33:46;10.70;99.90
26952;DHT22;14507;52.418;13.398;2023-03-20T06:36:12;10.70;99.90
26952;DHT22;14507;52.418;13.398;2023-03-20T06:38:37;10.70;99.90
26952;DHT22;14507;52.418;13.398;2023-03-20T06:41:03;10.70;99.90
26952;DHT22;14507;52.418;13.398;2023-03-20T06:43:29;10.80;99.90
26952;DHT22;14507;52.418;13.398;2023-03-20T06:45:55;10.80;99.90
26952;DHT22;14507;52.418;13.398;2023-03-20T06:48:20;10.80;99.90
26952;DHT22;14507;52.418;13.398;2023-03-20T06:50:49;10.80;99.90
26952;DHT22;14507;52.418;13.398;2023-03-20T06:53:16;10.80;99.90
26952;DHT22;14507;52.418;13.398;2023-03-20T06:55:42;10.70;99.90
26952;DHT22;14507;52.418;13.398;2023-03-20T06:58:10;10.70;99.90
26952;DHT22;14507;52.418;13.398;2023-03-20T07:00:36;10.70;99.90
26952;DHT22;14507;52.418;13.398;2023-03-20T07:03:02;10.60;99.90
26952;DHT22;14507;52.418;13.398;2023-03-20T07:05:28;10.60;99.90
26952;DHT22;14507;52.418;13.398;2023-03-20T07:07:54;10.60;99.90
26952;DHT22;14507;52.418;13.398;2023-03-20T07:10:20;10.60;99.90
26952;DHT22;14507;52.418;13.398;2023-03-20T07:12:45;10.50;99.90
26952;DHT22;14507;52.418;13.398;2023-03-20T07:15:11;10.50;99.90
26952;DHT22;14507;52.418;13.398;2023-03-20T07:17:37;10.50;99.90
26952;DHT22;14507;52.418;13.398;2023-03-20T07:20:03;10.50;99.90
26952;DHT22;14507;52.418;13.398;2023-03-20T07:22:29;10.50;99.90
26952;DHT22;14507;52.418;13.398;2023-03-20T07:24:58;10.50;99.90
26952;DHT22;14507;52.418;13.398;2023-03-20T07:27:24;10.50;99.90
26952;DHT22;14507;52.418;13.398;2023-03-20T07:29:50;10.40;99.90
26952;DHT22;14507;52.418;13.398;2023-03-20T07:32:16;10.40;99.90
26952;DHT22;14507;52.418;13.398;2023-03-20T07:34:42;10.40;99.90
26952;DHT22;14507;52.418;13.398;2023-03-20T07:37:08;10.40;99.90
26952;DHT22;14507;52.418;13.398;2023-03-20T07:39:34;10.40;99.90
26952;DHT22;14507;52.418;13.398;2023-03-20T07:42:00;10.40;99.90
26952;DHT22;14507;52.418;13.398;2023-03-20T07:44:26;10.40;99.90
26952;DHT22;14507;52.418;13.398;2023-03-20T07:46:51;10.40;99.90
26952;DHT22;14507;52.418;13.398;2023-03-20T07:49:17;10.40;99.90
26952;DHT22;14507;52.418;13.398;2023-03-20T07:51:44;10.40;99.90
26952;DHT22;14507;52.418;13.398;2023-03-20T07:54:10;10.40;99.90
26952;DHT22;14507;52.418;13.398;2023-03-20T07:56:36;10.40;99.90
26952;DHT22;14507;52.418;13.398;2023-03-20T07:59:02;10.40;99.90
26952;DHT22;14507;52.418;13.398;2023-03-20T08:01:27;10.40;99.90
26952;DHT22;14507;52.418;13.398;2023-03-20T08:03:53;10.40;99.90
26952;DHT22;14507;52.418;13.398;2023-03-20T08:06:19;10.40;99.90
26952;DHT22;14507;52.418;13.398;2023-03-20T08:08:45;10.40;99.90
26952;DHT22;14507;52.418;13.398;2023-03-20T08:11:11;10.40;99.90
26952;DHT22;14507;52.418;13.398;2023-03-20T08:13:37;10.50;99.90
26952;DHT22;14507;52.418;13.398;2023-03-20T08:16:03;10.50;99.90
26952;DHT22;14507;52.418;13.398;2023-03-20T08:18:29;10.60;99.90
26952;DHT22;14507;52.418;13.398;2023-03-20T08:20:54;10.70;99.90
26952;DHT22;14507;52.418;13.398;2023-03-20T08:23:20;10.70;99.90
26952;DHT22;14507;52.418;13.398;2023-03-20T08:25:50;10.70;99.90
26952;DHT22;14507;52.418;13.398;2023-03-20T08:28:17;10.70;99.90
26952;DHT22;14507;52.418;13.398;2023-03-20T08:30:43;10.70;99.90
26952;DHT22;14507;52.418;13.398;2023-03-20T08:33:09;10.80;99.90
26952;DHT22;14507;52.418;13.398;2023-03-20T08:35:35;10.80;99.90
26952;DHT22;14507;52.418;13.398;2023-03-20T08:38:01;10.80;99.90
26952;DHT22;14507;52.418;13.398;2023-03-20T08:40:27;10.80;99.90
26952;DHT22;14507;52.418;13.398;2023-03-20T08:42:54;10.80;99.90
26952;DHT22;14507;52.418;13.398;2023-03-20T08:45:20;10.80;99.90
26952;DHT22;14507;52.418;13.398;2023-03-20T08:47:49;10.80;99.90
26952;DHT22;14507;52.418;13.398;2023-03-20T08:50:14;10.80;99.90
26952;DHT22;14507;52.418;13.398;2023-03-20T08:52:40;10.90;99.90
26952;DHT22;14507;52.418;13.398;2023-03-20T08:55:09;11.10;99.90
26952;DHT22;14507;52.418;13.398;2023-03-20T08:57:35;11.30;99.90
26952;DHT22;14507;52.418;13.398;2023-03-20T09:00:03;11.70;99.90
26952;DHT22;14507;52.418;13.398;2023-03-20T09:02:30;12.10;99.90
26952;DHT22;14507;52.418;13.398;2023-03-20T09:04:56;12.60;99.90
26952;DHT22;14507;52.418;13.398;2023-03-20T09:07:22;13.20;99.90
26952;DHT22;14507;52.418;13.398;2023-03-20T09:09:47;13.50;99.90
26952;DHT22;14507;52.418;13.398;2023-03-20T09:12:13;13.70;99.90
26952;DHT22;14507;52.418;13.398;2023-03-20T09:14:39;13.80;99.90
26952;DHT22;14507;52.418;13.398;2023-03-20T09:17:04;13.60;99.90
26952;DHT22;14507;52.418;13.398;2023-03-20T09:19:30;13.30;99.90
26952;DHT22;14507;52.418;13.398;2023-03-20T09:21:56;13.00;99.90
26952;DHT22;14507;52.418;13.398;2023-03-20T09:24:22;12.90;99.90
26952;DHT22;14507;52.418;13.398;2023-03-20T09:26:48;12.70;99.90
26952;DHT22;14507;52.418;13.398;2023-03-20T09:29:14;12.50;99.90
26952;DHT22;14507;52.418;13.398;2023-03-20T09:31:39;12.50;99.90
26952;DHT22;14507;52.418;13.398;2023-03-20T09:34:05;12.40;99.90
26952;DHT22;14507;52.418;13.398;2023-03-20T09:36:32;12.40;99.90
26952;DHT22;14507;52.418;13.398;2023-03-20T09:38:57;12.40;99.90
26952;DHT22;14507;52.418;13.398;2023-03-20T09:41:24;12.40;99.90
26952;DHT22;14507;52.418;13.398;2023-03-20T09:44:13;12.40;99.90
26952;DHT22;14507;52.418;13.398;2023-03-20T09:52:25;13.10;99.90
26952;DHT22;14507;52.418;13.398;2023-03-20T09:54:55;13.80;99.90
26952;DHT22;14507;52.418;13.398;2023-03-20T09:57:28;14.50;99.90
26952;DHT22;14507;52.418;13.398;2023-03-20T10:00:03;15.10;99.90
26952;DHT22;14507;52.418;13.398;2023-03-20T10:07:43;14.90;99.90
26952;DHT22;14507;52.418;13.398;2023-03-20T10:10:13;14.60;99.90
26952;DHT22;14507;52.418;13.398;2023-03-20T10:12:50;14.20;99.90
26952;DHT22;14507;52.418;13.398;2023-03-20T10:15:41;13.80;99.90
26952;DHT22;14507;52.418;13.398;2023-03-20T10:18:24;13.50;99.90
26952;DHT22;14507;52.418;13.398;2023-03-20T10:21:01;13.30;99.90
26952;DHT22;14507;52.418;13.398;2023-03-20T10:23:41;13.20;99.90
26952;DHT22;14507;52.418;13.398;2023-03-20T10:26:14;13.00;99.90
26952;DHT22;14507;52.418;13.398;2023-03-20T10:34:22;12.90;99.90
26952;DHT22;14507;52.418;13.398;2023-03-20T10:37:10;12.80;99.90
26952;DHT22;14507;52.418;13.398;2023-03-20T10:42:32;12.90;99.90
26952;DHT22;14507;52.418;13.398;2023-03-20T10:45:07;13.00;99.90
26952;DHT22;14507;52.418;13.398;2023-03-20T10:47:39;13.10;99.90
26952;DHT22;14507;52.418;13.398;2023-03-20T10:50:16;13.10;99.90
26952;DHT22;14507;52.418;13.398;2023-03-20T10:52:43;13.00;99.90
26952;DHT22;14507;52.418;13.398;2023-03-20T10:57:41;13.00;99.90
26952;DHT22;14507;52.418;13.398;2023-03-20T11:00:21;12.90;99.90
26952;DHT22;14507;52.418;13.398;2023-03-20T11:02:47;12.90;99.90
26952;DHT22;14507;52.418;13.398;2023-03-20T11:05:34;12.90;99.90
26952;DHT22;14507;52.418;13.398;2023-03-20T11:08:22;13.00;99.90
26952;DHT22;14507;52.418;13.398;2023-03-20T11:10:57;13.20;99.90
26952;DHT22;14507;52.418;13.398;2023-03-20T11:13:37;13.30;99.90
26952;DHT22;14507;52.418;13.398;2023-03-20T11:16:24;13.40;99.90
26952;DHT22;14507;52.418;13.398;2023-03-20T11:18:51;13.40;99.90
26952;DHT22;14507;52.418;13.398;2023-03-20T11:21:28;13.50;99.90
26952;DHT22;14507;52.418;13.398;2023-03-20T11:23:55;13.50;99.90
26952;DHT22;14507;52.418;13.398;2023-03-20T11:26:39;13.50;99.90
26952;DHT22;14507;52.418;13.398;2023-03-20T11:29:26;13.50;99.90
26952;DHT22;14507;52.418;13.398;2023-03-20T11:31:53;13.50;99.90
26952;DHT22;14507;52.418;13.398;2023-03-20T11:34:23;13.50;99.90
26952;DHT22;14507;52.418;13.398;2023-03-20T11:36:57;13.40;99.90
26952;DHT22;14507;52.418;13.398;2023-03-20T11:39:26;13.40;99.90
26952;DHT22;14507;52.418;13.398;2023-03-20T11:41:55;13.30;99.90
26952;DHT22;14507;52.418;13.398;2023-03-20T11:44:34;13.20;99.90
26952;DHT22;14507;52.418;13.398;2023-03-20T11:47:21;13.10;99.90
26952;DHT22;14507;52.418;13.398;2023-03-20T11:49:58;13.10;99.90
26952;DHT22;14507;52.418;13.398;2023-03-20T11:52:26;13.10;99.90
26952;DHT22;14507;52.418;13.398;2023-03-20T11:54:58;13.10;99.90
26952;DHT22;14507;52.418;13.398;2023-03-20T11:57:35;13.00;99.90
26952;DHT22;14507;52.418;13.398;2023-03-20T12:00:05;13.00;99.90
26952;DHT22;14507;52.418;13.398;2023-03-20T12:02:31;13.00;99.90
26952;DHT22;14507;52.418;13.398;2023-03-20T12:05:00;13.00;99.90
26952;DHT22;14507;52.418;13.398;2023-03-20T12:07:32;13.10;99.90
26952;DHT22;14507;52.418;13.398;2023-03-20T12:10:03;13.20;99.90
26952;DHT22;14507;52.418;13.398;2023-03-20T12:12:41;13.30;99.90
26952;DHT22;14507;52.418;13.398;2023-03-20T12:15:17;13.40;99.90
26952;DHT22;14507;52.418;13.398;2023-03-20T12:17:53;13.40;99.90
26952;DHT22;14507;52.418;13.398;2023-03-20T12:20:31;13.40;99.90
26952;DHT22;14507;52.418;13.398;2023-03-20T12:26:00;13.30;99.90
26952;DHT22;14507;52.418;13.398;2023-03-20T12:28:37;13.20;99.90
26952;DHT22;14507;52.418;13.398;2023-03-20T12:31:32;13.20;99.90
26952;DHT22;14507;52.418;13.398;2023-03-20T12:36:33;13.40;99.90
26952;DHT22;14507;52.418;13.398;2023-03-20T12:39:03;13.40;99.90
26952;DHT22;14507;52.418;13.398;2023-03-20T12:41:37;13.50;99.90
26952;DHT22;14507;52.418;13.398;2023-03-20T12:44:13;13.60;99.90
26952;DHT22;14507;52.418;13.398;2023-03-20T12:57:18;13.80;99.90
26952;DHT22;14507;52.418;13.398;2023-03-20T13:05:44;13.60;99.90
26952;DHT22;14507;52.418;13.398;2023-03-20T13:11:27;13.60;99.90
26952;DHT22;14507;52.418;13.398;2023-03-20T13:13:57;13.50;99.90
26952;DHT22;14507;52.418;13.398;2023-03-20T13:21:47;13.60;99.90
26952;DHT22;14507;52.418;13.398;2023-03-20T13:27:57;13.40;99.90
26952;DHT22;14507;52.418;13.398;2023-03-20T13:30:30;13.40;99.90
26952;DHT22;14507;52.418;13.398;2023-03-20T13:33:33;13.40;99.90
26952;DHT22;14507;52.418;13.398;2023-03-20T13:38:40;13.40;99.90
26952;DHT22;14507;52.418;13.398;2023-03-20T13:41:08;13.50;99.90
26952;DHT22;14507;52.418;13.398;2023-03-20T13:43:42;13.50;99.90
26952;DHT22;14507;52.418;13.398;2023-03-20T13:46:24;13.60;99.90
26952;DHT22;14507;52.418;13.398;2023-03-20T13:48:52;13.80;99.90
26952;DHT22;14507;52.418;13.398;2023-03-20T13:57:04;13.90;99.90
26952;DHT22;14507;52.418;13.398;2023-03-20T14:04:42;13.80;99.90
26952;DHT22;14507;52.418;13.398;2023-03-20T14:07:28;13.80;99.90
26952;DHT22;14507;52.418;13.398;2023-03-20T14:09:54;13.70;99.90
26952;DHT22;14507;52.418;13.398;2023-03-20T14:12:24;13.70;99.90
26952;DHT22;14507;52.418;13.398;2023-03-20T14:14:55;13.70;99.90
26952;DHT22;14507;52.418;13.398;2023-03-20T14:17:29;13.70;99.90
26952;DHT22;14507;52.418;13.398;2023-03-20T14:19:56;13.60;99.90
26952;DHT22;14507;52.418;13.398;2023-03-20T14:22:32;13.60;99.90
26952;DHT22;14507;52.418;13.398;2023-03-20T14:25:04;13.60;99.90
26952;DHT22;14507;52.418;13.398;2023-03-20T14:27:35;13.50;99.90
26952;DHT22;14507;52.418;13.398;2023-03-20T14:35:37;13.20;99.90
26952;DHT22;14507;52.418;13.398;2023-03-20T14:52:24;13.00;99.90
26952;DHT22;14507;52.418;13.398;2023-03-20T14:54:53;13.00;99.90
26952;DHT22;14507;52.418;13.398;2023-03-20T14:57:31;13.00;99.90
26952;DHT22;14507;52.418;13.398;2023-03-20T14:59:58;12.90;99.90
26952;DHT22;14507;52.418;13.398;2023-03-20T15:02:30;12.80;99.90
26952;DHT22;14507;52.418;13.398;2023-03-20T15:04:59;12.80;99.90
26952;DHT22;14507;52.418;13.398;2023-03-20T15:07:28;12.80;99.90
26952;DHT22;14507;52.418;13.398;2023-03-20T15:09:57;12.70;99.90
26952;DHT22;14507;52.418;13.398;2023-03-20T15:12:26;12.60;99.90
26952;DHT22;14507;52.418;13.398;2023-03-20T15:14:58;12.60;99.90
26952;DHT22;14507;52.418;13.398;2023-03-20T15:17:39;12.70;99.90
26952;DHT22;14507;52.418;13.398;2023-03-20T15:22:53;12.70;99.90
26952;DHT22;14507;52.418;13.398;2023-03-20T15:25:22;12.70;99.90
26952;DHT22;14507;52.418;13.398;2023-03-20T15:27:49;12.80;99.90
26952;DHT22;14507;52.418;13.398;2023-03-20T15:30:18;12.80;99.90
26952;DHT22;14507;52.418;13.398;2023-03-20T15:32:46;12.80;99.90
26952;DHT22;14507;52.418;13.398;2023-03-20T15:35:16;12.80;99.90
26952;DHT22;14507;52.418;13.398;2023-03-20T15:37:45;12.70;99.90
26952;DHT22;14507;52.418;13.398;2023-03-20T15:42:56;12.70;99.90
26952;DHT22;14507;52.418;13.398;2023-03-20T15:45:26;12.60;99.90
26952;DHT22;14507;52.418;13.398;2023-03-20T15:47:59;12.60;99.90
26952;DHT22;14507;52.418;13.398;2023-03-20T15:50:25;12.60;99.90
26952;DHT22;14507;52.418;13.398;2023-03-20T15:52:51;12.60;99.90
26952;DHT22;14507;52.418;13.398;2023-03-20T15:55:22;12.50;99.90
26952;DHT22;14507;52.418;13.398;2023-03-20T15:57:49;12.50;99.90
26952;DHT22;14507;52.418;13.398;2023-03-20T16:00:29;12.40;99.90
26952;DHT22;14507;52.418;13.398;2023-03-20T16:02:56;12.40;99.90
26952;DHT22;14507;52.418;13.398;2023-03-20T16:05:25;12.40;99.90
26952;DHT22;14507;52.418;13.398;2023-03-20T16:07:52;12.40;99.90
26952;DHT22;14507;52.418;13.398;2023-03-20T16:10:21;12.40;99.90
26952;DHT22;14507;52.418;13.398;2023-03-20T16:12:51;12.40;99.90
26952;DHT22;14507;52.418;13.398;2023-03-20T16:15:20;12.40;99.90
26952;DHT22;14507;52.418;13.398;2023-03-20T16:17:51;12.30;99.90
26952;DHT22;14507;52.418;13.398;2023-03-20T16:20:18;12.30;99.90
26952;DHT22;14507;52.418;13.398;2023-03-20T16:22:44;12.30;99.90
26952;DHT22;14507;52.418;13.398;2023-03-20T16:25:15;12.20;99.90
26952;DHT22;14507;52.418;13.398;2023-03-20T16:27:43;12.20;99.90
26952;DHT22;14507;52.418;13.398;2023-03-20T16:30:21;12.20;99.90
26952;DHT22;14507;52.418;13.398;2023-03-20T16:32:53;12.20;99.90
26952;DHT22;14507;52.418;13.398;2023-03-20T16:35:24;12.10;99.90
26952;DHT22;14507;52.418;13.398;2023-03-20T16:37:58;12.10;99.90
26952;DHT22;14507;52.418;13.398;2023-03-20T16:40:35;12.10;99.90
26952;DHT22;14507;52.418;13.398;2023-03-20T16:43:24;12.10;99.90
26952;DHT22;14507;52.418;13.398;2023-03-20T16:45:54;12.10;99.90
26952;DHT22;14507;52.418;13.398;2023-03-20T16:50:46;12.10;99.90
26952;DHT22;14507;52.418;13.398;2023-03-20T16:53:18;12.00;99.90
26952;DHT22;14507;52.418;13.398;2023-03-20T16:55:47;12.00;99.90
26952;DHT22;14507;52.418;13.398;2023-03-20T16:58:25;12.00;99.90
26952;DHT22;14507;52.418;13.398;2023-03-20T17:00:57;12.00;99.90
26952;DHT22;14507;52.418;13.398;2023-03-20T17:03:26;12.00;99.90
26952;DHT22;14507;52.418;13.398;2023-03-20T17:08:45;11.90;99.90
26952;DHT22;14507;52.418;13.398;2023-03-20T17:11:15;11.90;99.90
26952;DHT22;14507;52.418;13.398;2023-03-20T17:13:42;11.90;99.90
26952;DHT22;14507;52.418;13.398;2023-03-20T17:16:13;11.80;99.90
26952;DHT22;14507;52.418;13.398;2023-03-20T17:18:40;11.80;99.90
26952;DHT22;14507;52.418;13.398;2023-03-20T17:21:06;11.80;99.90
26952;DHT22;14507;52.418;13.398;2023-03-20T17:23:32;11.80;99.90
26952;DHT22;14507;52.418;13.398;2023-03-20T17:25:57;11.80;99.90
26952;DHT22;14507;52.418;13.398;2023-03-20T17:28:29;11.80;99.90
26952;DHT22;14507;52.418;13.398;2023-03-20T17:30:55;11.70;99.90
26952;DHT22;14507;52.418;13.398;2023-03-20T17:33:21;11.70;99.90
26952;DHT22;14507;52.418;13.398;2023-03-20T17:35:47;11.70;99.90
26952;DHT22;14507;52.418;13.398;2023-03-20T17:38:20;11.70;99.90
26952;DHT22;14507;52.418;13.398;2023-03-20T17:40:47;11.70;99.90
26952;DHT22;14507;52.418;13.398;2023-03-20T17:43:14;11.60;99.90
26952;DHT22;14507;52.418;13.398;2023-03-20T17:45:41;11.60;99.90
26952;DHT22;14507;52.418;13.398;2023-03-20T17:48:15;11.70;99.90